Latest Weather Observations for Naracoorte

IDS60801

Issued at 1:02 pm CST Wednesday 20 September 2017 (issued every 30 minutes, with the page automatically refreshed every 10 minutes)

About weather observations | Map of weather stations | Latest weather observations for SA | Other Formats
Station Details ID: 026099 Name: NARACOORTE AERODROME Lat: -36.98 Lon: 140.73 Height: 49.72 m
Data from the previous 72 hours. | See also: Recent months at Naracoorte
Date/Time
CST
Temp
°C
App
Temp
°C
Dew
Point
°C
Rel
Hum
%
Delta-T
°C
Wind Press
QNH
hPa
Press
MSL
hPa
Rain since
9am
mm
Dir  Spd
km/h
Gust
km/h
Spd
kts
Gust
kts
20/01:00pm 17.6 12.9 7.9 53 4.9 N 22 35 12 19 1015.7 1015.8 0.2
20/12:30pm 18.3 13.3 8.0 51 5.3 NNW 24 35 13 19 1016.5 1016.6 0.0
20/12:00pm 17.9 12.9 8.2 53 5.0 NNW 24 35 13 19 1016.6 1016.7 0.0
20/11:30am 17.3 12.7 9.5 60 4.1 NNW 24 33 13 18 1017.3 1017.3 0.0
20/11:00am 16.3 10.9 8.0 58 4.2 NNW 26 37 14 20 1017.7 1017.7 0.0
20/10:30am 15.9 10.5 7.9 59 4.0 N 26 33 14 18 1018.1 1018.1 0.0
20/10:00am 14.5 9.6 7.1 61 3.6 N 22 33 12 18 1019.0 1019.0 0.0
20/09:30am 13.5 8.2 6.8 64 3.2 N 24 32 13 17 1019.1 1019.1 0.0
20/09:00am 12.6 8.1 7.1 69 2.7 N 20 30 11 16 1019.6 1019.6 0.0
20/08:30am 11.5 7.1 6.6 72 2.3 N 19 28 10 15 1019.7 1019.7 0.0
20/08:00am 10.0 5.8 5.8 75 1.9 N 17 24 9 13 1020.2 1020.2 0.0
20/07:30am 8.4 3.2 5.3 81 1.4 NNE 22 30 12 16 1019.8 1019.8 0.0
20/07:00am 7.9 3.2 5.2 83 1.2 NNE 19 28 10 15 1019.9 1019.9 0.0
20/06:30am 6.5 1.5 4.7 88 0.8 NNE 20 24 11 13 1019.8 1019.8 0.0
20/06:00am 6.1 0.7 4.6 90 0.6 NNE 22 30 12 16 1019.4 1019.4 0.0
20/05:30am 5.8 1.3 4.4 91 0.6 NNE 17 20 9 11 1019.8 1019.8 0.0
20/05:00am 5.9 2.2 4.5 91 0.6 NNE 13 17 7 9 1020.0 1020.0 0.0
20/04:30am 5.9 2.6 4.5 91 0.6 NNE 11 15 6 8 1019.9 1019.9 0.0
20/04:00am 6.3 2.7 4.8 90 0.7 NNE 13 19 7 10 1019.8 1019.8 0.0
20/03:30am 6.2 2.2 4.8 91 0.6 NNE 15 19 8 10 1019.8 1019.8 0.0
20/03:00am 5.9 2.6 4.4 90 0.6 NNE 11 13 6 7 1020.2 1020.2 0.0
20/02:30am 6.2 2.5 4.7 90 0.6 NNE 13 17 7 9 1020.2 1020.2 0.0
20/02:00am 6.4 2.8 5.0 91 0.6 NNE 13 17 7 9 1020.4 1020.4 0.0
20/01:30am 6.3 3.4 4.8 90 0.7 NNE 9 11 5 6 1021.0 1021.0 0.0
20/01:00am 6.6 3.4 5.1 90 0.7 NNE 11 17 6 9 1020.9 1020.9 0.0
20/12:30am 6.4 2.8 5.2 92 0.5 NNE 13 15 7 8 1020.9 1020.9 0.0
20/12:00am 5.9 3.0 4.7 92 0.5 NNE 9 11 5 6 1021.2 1021.2 0.0
 
Date/Time
CST
Temp
°C
App
Temp
°C
Dew
Point
°C
Rel
Hum
%
Delta-T
°C
Wind Press
QNH
hPa
Press
MSL
hPa
Rain since
9am
mm
Dir  Spd
km/h
Gust
km/h
Spd
kts
Gust
kts
19/11:30pm 5.9 3.0 4.9 93 0.4 NNE 9 11 5 6 1021.6 1021.6 0.0
19/11:00pm 5.8 3.3 4.8 93 0.4 NNE 7 9 4 5 1021.9 1021.9 0.0
19/10:30pm 6.1 5.0 4.9 92 0.5 CALM 0 0 0 0 1022.1 1022.1 0.0
19/10:00pm 6.3 3.8 4.9 91 0.6 NNE 7 7 4 4 1022.2 1022.2 0.0
19/09:30pm 7.0 4.9 5.6 91 0.6 N 6 7 3 4 1022.5 1022.5 0.0
19/09:00pm 7.4 5.3 6.0 91 0.6 N 6 6 3 3 1022.7 1022.7 0.0
19/08:30pm 8.0 6.0 6.3 89 0.8 NNW 6 6 3 3 1022.9 1022.9 0.0
19/08:00pm 7.9 6.6 6.0 88 0.9 N 2 6 1 3 1022.8 1022.8 0.0
19/07:30pm 8.3 6.1 6.1 86 1.0 WNW 7 9 4 5 1022.8 1022.8 0.0
19/07:00pm 8.6 5.2 6.1 84 1.1 W 13 13 7 7 1022.6 1022.6 0.0
19/06:30pm 9.8 7.4 7.2 84 1.2 W 9 11 5 6 1022.4 1022.4 0.0
19/06:00pm 10.6 7.9 7.3 80 1.6 WSW 11 11 6 6 1022.3 1022.3 0.0
19/05:30pm 11.7 9.0 7.2 74 2.2 W 11 15 6 8 1022.0 1022.0 0.0
19/05:00pm 12.6 8.2 6.6 67 2.9 W 19 24 10 13 1021.9 1021.9 0.0
19/04:30pm 13.1 8.6 6.2 63 3.3 WNW 19 22 10 12 1021.8 1021.8 0.0
19/04:00pm 13.5 9.4 6.4 62 3.4 WNW 17 20 9 11 1021.7 1021.7 0.0
19/03:30pm 13.4 8.8 6.5 63 3.3 W 20 26 11 14 1021.6 1021.6 0.0
19/03:00pm 13.6 9.3 5.3 57 3.9 W 17 24 9 13 1021.8 1021.8 0.0
19/02:30pm 13.7 9.2 6.3 61 3.5 W 19 28 10 15 1021.9 1021.9 0.0
19/02:00pm 13.8 10.4 5.9 59 3.8 W 13 22 7 12 1022.2 1022.2 0.0
19/01:30pm 13.5 9.5 6.6 63 3.3 W 17 28 9 15 1022.4 1022.4 0.0
19/01:00pm 12.7 9.8 6.7 67 2.9 WSW 11 15 6 8 1022.6 1022.6 0.0
19/12:30pm 12.7 8.9 5.6 62 3.3 WSW 15 22 8 12 1022.9 1022.9 0.0
19/12:00pm 12.2 7.6 6.5 68 2.7 WSW 20 26 11 14 1023.0 1023.0 0.0
19/11:30am 12.9 10.3 7.6 70 2.6 WSW 11 17 6 9 1022.9 1022.9 0.0
19/11:00am 11.1 6.7 6.6 74 2.1 WSW 19 26 10 14 1023.0 1023.0 0.0
19/10:30am 12.1 8.6 5.5 64 3.1 W 13 19 7 10 1022.9 1022.9 0.0
19/10:00am 10.9 6.4 6.3 73 2.2 SW 19 24 10 13 1022.9 1022.9 0.0
19/09:30am 12.4 8.8 6.9 69 2.6 WSW 15 22 8 12 1022.8 1022.8 0.0
19/09:00am 10.7 6.9 5.7 71 2.3 W 15 19 8 10 1022.7 1022.7 1.8
19/08:30am 9.7 5.4 7.0 83 1.3 W 19 26 10 14 1022.5 1022.5 1.8
19/08:00am 10.2 6.9 6.4 77 1.8 WSW 13 20 7 11 1022.1 1022.1 1.8
19/07:30am 8.5 5.6 6.6 88 0.9 WSW 11 13 6 7 1021.8 1021.8 1.8
19/07:00am 7.6 5.1 6.4 92 0.5 WSW 9 11 5 6 1021.3 1021.3 1.8
19/06:30am 6.7 2.9 6.0 95 0.3 WNW 15 17 8 9 1021.0 1021.0 1.8
19/06:00am 4.5 0.2 3.5 93 0.4 WSW 15 17 8 9 1020.3 1020.3 1.8
19/05:30am 6.0 2.3 4.5 90 0.6 WSW 13 15 7 8 1019.8 1019.8 1.8
19/05:00am 6.3 2.4 5.3 93 0.4 WSW 15 17 8 9 1019.7 1019.7 1.8
19/04:30am 6.9 3.1 5.8 93 0.5 W 15 17 8 9 1019.2 1019.2 1.8
19/04:00am 5.5 1.8 4.5 93 0.4 W 13 15 7 8 1018.8 1018.8 1.8
19/03:30am 6.4 2.8 5.2 92 0.5 WSW 13 15 7 8 1018.7 1018.7 1.8
19/03:00am 6.1 2.4 4.6 90 0.6 W 13 15 7 8 1018.4 1018.4 1.8
19/02:30am 7.1 4.0 5.4 89 0.8 W 11 15 6 8 1018.3 1018.3 1.8
19/02:00am 7.0 2.6 5.0 87 0.9 WSW 17 20 9 11 1018.2 1018.2 1.8
19/01:30am 7.1 3.2 5.4 89 0.8 SW 15 20 8 11 1018.2 1018.2 1.8
19/01:00am 7.7 3.9 6.0 89 0.8 WSW 15 19 8 10 1018.1 1018.1 1.8
19/12:30am 8.0 3.4 6.6 91 0.6 WSW 20 39 11 21 1018.2 1018.2 1.8
19/12:00am 7.1 3.3 5.7 91 0.6 W 15 19 8 10 1017.5 1017.5 1.6
 
Date/Time
CST
Temp
°C
App
Temp
°C
Dew
Point
°C
Rel
Hum
%
Delta-T
°C
Wind Press
QNH
hPa
Press
MSL
hPa
Rain since
9am
mm
Dir  Spd
km/h
Gust
km/h
Spd
kts
Gust
kts
18/11:30pm 8.0 2.6 6.3 89 0.8 W 24 32 13 17 1017.1 1017.1 1.6
18/11:00pm 8.7 4.3 7.2 90 0.7 W 20 28 11 15 1017.1 1017.1 1.6
18/10:30pm 8.5 3.2 6.8 89 0.8 W 24 32 13 17 1017.0 1017.0 1.6
18/10:00pm 8.5 4.5 6.6 88 0.9 WNW 17 20 9 11 1016.6 1016.7 1.6
18/09:30pm 8.4 4.4 6.5 88 0.9 WNW 17 19 9 10 1016.5 1016.6 1.6
18/09:00pm 8.3 5.0 6.6 89 0.8 WNW 13 17 7 9 1016.2 1016.3 1.6
18/08:30pm 9.4 3.7 6.7 83 1.3 WNW 26 35 14 19 1015.9 1016.0 1.2
18/08:00pm 9.1 4.0 6.2 82 1.3 WNW 22 28 12 15 1015.7 1015.8 1.2
18/07:30pm 9.2 4.2 6.5 83 1.3 W 22 30 12 16 1015.3 1015.4 1.2
18/07:00pm 9.2 1.0 6.6 84 1.2 W 39 54 21 29 1015.0 1015.1 1.2
18/06:51pm 9.5 1.9 5.9 78 1.7 W 35 54 19 29 1014.9 1015.0 1.2
18/06:30pm 9.6 1.6 5.6 76 1.8 W 37 50 20 27 1014.3 1014.4 1.2
18/06:00pm 10.6 3.3 5.4 70 2.4 W 33 56 18 30 1013.6 1013.7 1.2
18/05:54pm 10.9 3.2 5.2 68 2.6 W 35 56 19 30 1013.5 1013.6 1.2
18/05:30pm 11.3 3.2 5.4 67 2.7 W 37 50 20 27 1013.0 1013.1 1.2
18/05:00pm 11.7 2.5 5.3 65 3.0 W 43 56 23 30 1012.5 1012.5 1.2
18/04:30pm 12.6 2.4 5.1 60 3.5 W 48 67 26 36 1011.9 1011.9 1.2
18/04:15pm 12.8 4.1 5.9 63 3.3 W 41 61 22 33 1011.6 1011.6 1.2
18/04:00pm 12.3 2.8 6.8 69 2.6 W 46 59 25 32 1011.5 1011.5 1.2
18/03:30pm 13.0 4.0 7.2 68 2.8 WNW 44 56 24 30 1011.0 1011.0 1.2
18/03:22pm 13.2 3.8 7.2 67 2.9 WNW 46 65 25 35 1010.8 1010.8 1.2
18/03:00pm 14.2 4.8 7.3 63 3.4 W 46 61 25 33 1010.5 1010.5 1.2
18/02:30pm 12.9 4.1 8.0 72 2.4 W 44 56 24 30 1010.4 1010.4 1.2
18/02:09pm 12.8 5.8 8.5 75 2.1 W 35 54 19 29 1010.2 1010.2 1.2
18/02:00pm 12.6 4.9 8.5 76 2.0 W 39 48 21 26 1010.0 1010.0 1.2
18/01:30pm 12.5 5.0 10.7 89 0.9 WNW 41 52 22 28 1009.7 1009.7 1.2
18/01:07pm 12.8 4.4 11.0 89 0.9 WNW 46 69 25 37 1009.6 1009.6 1.2
18/01:04pm 12.9 5.1 11.1 89 0.9 NW 43 69 23 37 1009.6 1009.6 1.2
18/01:00pm 13.3 7.5 11.5 89 1.0 NW 33 52 18 28 1009.4 1009.4 1.0
18/12:59pm 13.2 7.5 11.3 88 1.0 NW 32 52 17 28 1009.4 1009.4 0.8
18/12:30pm 13.5 9.1 11.7 89 1.0 NW 26 37 14 20 1009.7 1009.7 0.6
18/12:00pm 14.4 7.9 10.4 77 2.1 WNW 35 44 19 24 1009.8 1009.8 0.0
18/11:30am 15.5 8.4 9.6 68 3.1 NW 37 52 20 28 1009.7 1009.7 0.0
18/11:01am 16.6 9.9 9.5 63 3.7 NW 35 54 19 29 1009.7 1009.7 0.0
18/11:00am 16.5 9.8 9.7 64 3.6 NW 35 50 19 27 1009.7 1009.7 0.0
18/10:36am 15.8 9.6 9.9 68 3.1 NW 33 52 18 28 1009.6 1009.6 0.0
18/10:30am 15.8 9.0 10.6 71 2.8 WNW 37 46 20 25 1009.8 1009.8 0.0
18/10:00am 16.2 10.4 10.9 71 2.8 NW 32 44 17 24 1009.9 1009.9 0.0
18/09:30am 15.8 10.0 9.5 66 3.3 NW 30 39 16 21 1009.9 1009.9 0.0
18/09:00am 15.4 10.0 6.2 54 4.5 NW 24 33 13 18 1009.8 1009.8 0.0
18/08:30am 15.0 9.6 4.4 49 4.9 NNW 22 28 12 15 1009.6 1009.6 0.0
18/08:00am 15.2 9.0 2.4 42 5.7 NNW 24 33 13 18 1009.5 1009.5 0.0
18/07:30am 15.9 8.7 0.9 36 6.5 N 28 39 15 21 1009.2 1009.2 0.0
18/07:00am 16.3 9.9 1.2 36 6.6 NNW 24 39 13 21 1009.0 1009.0 0.0
18/06:30am 15.3 9.3 1.1 38 6.2 N 22 32 12 17 1008.8 1008.8 0.0
18/06:00am 14.0 7.5 0.6 40 5.7 NNE 24 32 13 17 1008.6 1008.6 0.0
18/05:34am 14.4 7.1 0.3 38 6.0 N 28 46 15 25 1008.6 1008.6 0.0
18/05:30am 14.6 6.6 0.5 38 6.0 N 32 46 17 25 1008.7 1008.7 0.0
18/05:00am 15.6 6.9 -0.6 33 6.8 N 35 54 19 29 1008.4 1008.4 0.0
18/04:31am 15.7 6.6 -0.9 32 6.9 N 37 56 20 30 1008.3 1008.3 0.0
18/04:30am 15.9 6.4 -0.8 32 7.0 N 39 56 21 30 1008.2 1008.2 0.0
18/04:00am 15.9 7.2 -0.8 32 7.0 N 35 54 19 29 1008.5 1008.5 0.0
18/03:36am 16.3 7.6 -0.8 31 7.2 N 35 59 19 32 1008.6 1008.6 0.0
18/03:30am 16.2 7.5 -0.5 32 7.1 N 35 50 19 27 1008.7 1008.7 0.0
18/03:05am 15.8 7.7 -0.4 33 6.8 N 32 50 17 27 1009.2 1009.2 0.0
18/03:00am 15.5 7.7 -0.7 33 6.8 N 30 41 16 22 1009.4 1009.4 0.0
18/02:49am 15.6 7.5 -0.6 33 6.8 N 32 50 17 27 1009.8 1009.8 0.0
18/02:30am 15.4 7.2 -0.8 33 6.8 N 32 43 17 23 1010.2 1010.2 0.0
18/02:00am 16.1 7.3 -1.5 30 7.3 N 35 69 19 37 1010.6 1010.6 0.0
18/01:30am 16.0 7.7 -1.5 30 7.2 N 32 52 17 28 1011.3 1011.3 0.0
18/01:07am 15.9 7.5 -2.1 29 7.3 N 32 54 17 29 1011.7 1011.7 0.0
18/01:00am 15.6 7.7 -1.4 31 7.0 N 30 46 16 25 1011.8 1011.8 0.0
18/12:31am 15.6 6.8 -1.4 31 7.0 NNE 35 54 19 29 1012.2 1012.2 0.0
18/12:30am 15.6 6.4 -1.0 32 6.9 NNE 37 54 20 29 1012.2 1012.2 0.0
18/12:00am 15.2 6.9 -0.5 34 6.6 NNE 33 44 18 24 1012.7 1012.7 0.0
 
Date/Time
CST
Temp
°C
App
Temp
°C
Dew
Point
°C
Rel
Hum
%
Delta-T
°C
Wind Press
QNH
hPa
Press
MSL
hPa
Rain since
9am
mm
Dir  Spd
km/h
Gust
km/h
Spd
kts
Gust
kts
17/11:30pm 15.1 6.8 -0.6 34 6.6 NNE 33 44 18 24 1013.0 1013.1 0.0
17/11:15pm 15.3 7.0 -0.1 35 6.5 NNE 33 52 18 28 1013.4 1013.5 0.0
17/11:00pm 15.0 7.0 0.1 36 6.3 NNE 32 43 17 23 1013.8 1013.9 0.0
17/10:30pm 15.3 7.1 0.3 36 6.4 NNE 33 46 18 25 1014.2 1014.3 0.0
17/10:00pm 15.4 7.5 1.2 38 6.2 NNE 32 43 17 23 1014.6 1014.7 0.0
17/09:30pm 15.2 8.2 2.1 41 5.8 NNE 28 37 15 20 1015.2 1015.3 0.0
17/09:00pm 15.3 9.0 3.5 45 5.4 NNE 26 33 14 18 1015.4 1015.5 0.0
17/08:30pm 15.2 9.8 4.3 48 5.1 NNE 22 32 12 17 1015.8 1015.9 0.0
17/08:00pm 15.3 10.4 5.2 51 4.8 NNE 20 30 11 16 1016.0 1016.1 0.0
17/07:30pm 15.3 10.5 5.5 52 4.7 NNE 20 28 11 15 1016.2 1016.3 0.0
17/07:00pm 15.6 10.9 5.2 50 4.9 NNE 19 24 10 13 1016.4 1016.5 0.0
17/06:30pm 15.6 11.0 5.5 51 4.8 NNE 19 24 10 13 1016.5 1016.6 0.0
17/06:00pm 16.0 11.9 6.4 53 4.7 NNE 17 19 9 10 1017.0 1017.0 0.0
17/05:30pm 17.0 12.8 5.6 47 5.5 N 17 20 9 11 1017.1 1017.1 0.0
17/05:00pm 18.0 13.3 5.2 43 6.2 N 19 26 10 14 1017.2 1017.2 0.0
17/04:30pm 19.0 14.6 4.7 39 6.9 N 17 28 9 15 1017.5 1017.5 0.0
17/04:00pm 18.9 13.6 5.0 40 6.7 N 22 33 12 18 1017.8 1017.8 0.0
17/03:30pm 18.8 13.3 4.2 38 6.9 N 22 33 12 18 1018.1 1018.1 0.0
17/03:00pm 18.5 12.2 3.6 37 7.0 N 26 35 14 19 1018.5 1018.5 0.0
17/02:30pm 18.6 13.1 6.1 44 6.2 N 24 35 13 19 1018.9 1018.9 0.0
17/02:00pm 18.2 12.4 4.4 40 6.6 NNW 24 37 13 20 1019.4 1019.4 0.0
17/01:30pm 17.7 11.4 3.6 39 6.6 NNE 26 35 14 19 1019.9 1019.9 0.0

Other Formats:

Comma delimited format used in spreadsheet applications
http://www.bom.gov.au/fwo/IDS60801/IDS60801.94820.axf

JavaScript Object Notation format (JSON) in row-major order
http://www.bom.gov.au/fwo/IDS60801/IDS60801.94820.json